createdAt,value
2018-03-04T00:01:14.675Z,95885.31
2018-03-04T00:02:53.121Z,95907.73
2018-03-04T00:04:30.187Z,95902.58
2018-03-04T00:06:07.896Z,95911.20
2018-03-04T00:07:48.171Z,95897.80
2018-03-04T00:09:26.056Z,95962.32
2018-03-04T00:11:03.098Z,95959.81
2018-03-04T00:12:41.224Z,95948.17
2018-03-04T00:14:18.229Z,95987.88
2018-03-04T00:15:56.069Z,95943.43
2018-03-04T00:17:34.755Z,95930.09
2018-03-04T00:19:12.209Z,95923.23
2018-03-04T00:20:49.321Z,95913.39
2018-03-04T00:22:39.193Z,95927.62
2018-03-04T00:24:16.326Z,95889.27
2018-03-04T00:25:54.272Z,95897.87
2018-03-04T00:27:31.274Z,95926.31
2018-03-04T00:29:09.129Z,95922.42
2018-03-04T00:30:46.465Z,95910.74
2018-03-04T00:32:24.211Z,95907.34
2018-03-04T00:34:01.290Z,95893.16
2018-03-04T00:35:39.198Z,95925.42
2018-03-04T00:37:16.452Z,95936.64
2018-03-04T00:38:54.285Z,95934.05
2018-03-04T00:40:31.677Z,95968.02
2018-03-04T00:42:09.114Z,95955.53
2018-03-04T00:43:46.333Z,95960.23
2018-03-04T00:45:26.779Z,95972.73
2018-03-04T00:47:04.159Z,95940.56
2018-03-04T00:48:43.187Z,95919.45
2018-03-04T00:50:20.284Z,95918.63
2018-03-04T00:51:58.151Z,95930.20
2018-03-04T00:53:35.310Z,95900.56
2018-03-04T00:55:12.624Z,95902.29
2018-03-04T00:56:49.787Z,95946.16
2018-03-04T00:58:27.546Z,95970.22
2018-03-04T01:00:05.532Z,95962.04
2018-03-04T01:01:43.412Z,95936.28
2018-03-04T01:03:21.072Z,95928.54
2018-03-04T01:04:59.556Z,95937.59
2018-03-04T01:06:38.339Z,95962.92
2018-03-04T01:08:15.875Z,95922.52
2018-03-04T01:09:53.601Z,95925.14
2018-03-04T01:11:31.853Z,95915.20
2018-03-04T01:13:09.707Z,95917.39
2018-03-04T01:14:47.270Z,95939.25
2018-03-04T01:16:26.150Z,95966.47
2018-03-04T01:18:03.989Z,95948.28
2018-03-04T01:19:41.752Z,95944.92
2018-03-04T01:21:19.041Z,95947.92
2018-03-04T01:22:56.574Z,95940.14
2018-03-04T01:24:34.424Z,95956.52
2018-03-04T01:26:11.918Z,95954.75
2018-03-04T01:27:49.659Z,95940.14
2018-03-04T01:29:28.042Z,95935.47
2018-03-04T01:31:06.783Z,95930.27
2018-03-04T01:32:44.580Z,95925.92
2018-03-04T01:34:22.380Z,95928.50
2018-03-04T01:36:00.030Z,95932.00
2018-03-04T01:37:39.334Z,95944.49
2018-03-04T01:39:17.206Z,95948.38
2018-03-04T01:40:55.325Z,95962.57
2018-03-04T01:42:34.037Z,95963.81
2018-03-04T01:44:12.850Z,95940.21
2018-03-04T01:45:51.694Z,95926.41
2018-03-04T01:47:29.489Z,95924.30
2018-03-04T01:49:10.409Z,95921.71
2018-03-04T01:50:48.940Z,95919.59
2018-03-04T01:52:28.097Z,95916.13
2018-03-04T01:54:08.868Z,95902.36
2018-03-04T01:55:48.410Z,95907.45
2018-03-04T01:57:28.913Z,95910.92
2018-03-04T01:59:07.380Z,95923.83
2018-03-04T02:00:45.338Z,95936.36
2018-03-04T02:02:23.930Z,95937.56
2018-03-04T02:04:02.111Z,95945.84
2018-03-04T02:05:40.434Z,95944.95
2018-03-04T02:07:18.811Z,95950.12
2018-03-04T02:08:56.484Z,95961.66
2018-03-04T02:10:34.492Z,95985.01
2018-03-04T02:12:12.346Z,95962.61
2018-03-04T02:13:50.082Z,95945.84
2018-03-04T02:15:29.998Z,95935.05
2018-03-04T02:17:09.348Z,95931.69
2018-03-04T02:18:47.764Z,95955.71
2018-03-04T02:20:25.344Z,95953.59
2018-03-04T02:22:04.137Z,95957.45
2018-03-04T02:23:42.493Z,95958.33
2018-03-04T02:25:20.325Z,95984.13
2018-03-04T02:26:57.781Z,95987.98
2018-03-04T02:28:36.362Z,96009.53
2018-03-04T02:30:15.796Z,96013.39
2018-03-04T02:31:53.783Z,96015.16
2018-03-04T02:33:32.050Z,96023.73
2018-03-04T02:35:09.828Z,95999.59
2018-03-04T02:36:48.856Z,95986.28
2018-03-04T02:38:26.710Z,95969.08
2018-03-04T02:40:05.318Z,96010.84
2018-03-04T02:41:42.974Z,96009.64
2018-03-04T02:43:21.260Z,96015.63
2018-03-04T02:44:59.437Z,96009.11
2018-03-04T02:46:37.460Z,96015.59
2018-03-04T02:48:15.730Z,96008.72
2018-03-04T02:49:53.753Z,95996.65
2018-03-04T02:51:31.409Z,96019.91
2018-03-04T02:53:10.492Z,96040.15
2018-03-04T02:54:48.265Z,96058.28
2018-03-04T02:56:27.607Z,96075.13
2018-03-04T02:58:05.219Z,96059.55
2018-03-04T02:59:43.896Z,96064.26
2018-03-04T03:01:22.117Z,96064.72
2018-03-04T03:03:00.220Z,96052.30
2018-03-04T03:04:37.969Z,96066.03
2018-03-04T03:06:15.752Z,96052.19
2018-03-04T03:07:53.833Z,96050.09
2018-03-04T03:09:31.908Z,96067.41
2018-03-04T03:11:09.480Z,96087.59
2018-03-04T03:12:47.231Z,96087.66
2018-03-04T03:14:25.159Z,96066.10
2018-03-04T03:16:03.221Z,96044.97
2018-03-04T03:17:42.716Z,96036.79
2018-03-04T03:19:20.148Z,96043.30
2018-03-04T03:20:58.723Z,96063.06
2018-03-04T03:22:35.905Z,96078.63
2018-03-04T03:24:13.627Z,96105.30
2018-03-04T03:25:51.600Z,96100.91
2018-03-04T03:27:28.479Z,96100.13
2018-03-04T03:29:06.056Z,96089.75
2018-03-04T03:30:43.863Z,96080.30
2018-03-04T03:32:21.444Z,96076.51
2018-03-04T03:33:58.910Z,96066.56
2018-03-04T03:35:37.124Z,96075.20
2018-03-04T03:37:14.836Z,96081.15
2018-03-04T03:38:52.937Z,96104.80
2018-03-04T03:40:30.323Z,96096.20
2018-03-04T03:42:08.155Z,96090.22
2018-03-04T03:43:45.469Z,96090.22
2018-03-04T03:45:24.583Z,96097.55
2018-03-04T03:47:02.776Z,96091.03
2018-03-04T03:48:41.840Z,96096.66
2018-03-04T03:50:20.395Z,96100.23
2018-03-04T03:51:57.937Z,96127.72
2018-03-04T03:53:35.541Z,96150.98
2018-03-04T03:55:13.215Z,96150.50
2018-03-04T03:56:50.647Z,96153.58
2018-03-04T03:58:28.750Z,96163.00
2018-03-04T04:00:06.613Z,96175.58
2018-03-04T04:01:44.511Z,96166.08
2018-03-04T04:03:21.380Z,96152.69
2018-03-04T04:04:58.798Z,96144.55
2018-03-04T04:06:36.008Z,96152.27
2018-03-04T04:08:14.579Z,96157.05
2018-03-04T04:09:51.731Z,96173.06
2018-03-04T04:11:29.001Z,96154.46
2018-03-04T04:13:05.980Z,96126.84
2018-03-04T04:14:44.701Z,96126.55
2018-03-04T04:16:23.112Z,96128.21
2018-03-04T04:17:59.963Z,96154.03
2018-03-04T04:19:37.873Z,96152.37
2018-03-04T04:21:15.001Z,96166.19
2018-03-04T04:22:51.819Z,96157.93
2018-03-04T04:24:28.587Z,96186.41
2018-03-04T04:26:05.481Z,96202.36
2018-03-04T04:27:42.681Z,96183.41
2018-03-04T04:29:19.474Z,96189.03
2018-03-04T04:30:56.288Z,96193.39
2018-03-04T04:32:32.840Z,96180.92
2018-03-04T04:34:10.486Z,96177.84
2018-03-04T04:35:47.311Z,96161.41
2018-03-04T04:37:23.894Z,96159.67
2018-03-04T04:39:01.554Z,96160.06
2018-03-04T04:40:38.945Z,96173.52
2018-03-04T04:42:15.686Z,96190.34
2018-03-04T04:43:52.367Z,96190.77
2018-03-04T04:45:30.142Z,96197.22
2018-03-04T04:47:07.442Z,96207.53
2018-03-04T04:48:45.071Z,96199.42
2018-03-04T04:50:21.979Z,96206.72
2018-03-04T04:51:59.691Z,96220.50
2018-03-04T04:53:37.732Z,96242.05
2018-03-04T04:55:21.612Z,96230.42
2018-03-04T04:56:58.442Z,96230.39
2018-03-04T04:58:35.849Z,96265.77
2018-03-04T05:00:14.883Z,96290.80
2018-03-04T05:01:52.422Z,96321.36
2018-03-04T05:03:30.209Z,96307.59
2018-03-04T05:05:07.494Z,96309.77
2018-03-04T05:06:47.304Z,96307.17
2018-03-04T05:08:24.106Z,96282.60
2018-03-04T05:10:01.049Z,96258.00
2018-03-04T05:11:37.687Z,96244.64
2018-03-04T05:13:15.176Z,96252.44
2018-03-04T05:14:52.192Z,96241.63
2018-03-04T05:16:29.591Z,96270.16
2018-03-04T05:18:06.498Z,96269.27
2018-03-04T05:19:45.451Z,96249.81
2018-03-04T05:21:22.138Z,96262.78
2018-03-04T05:22:58.935Z,96275.72
2018-03-04T05:24:35.785Z,96281.33
2018-03-04T05:26:13.817Z,96267.96
2018-03-04T05:27:50.733Z,96247.19
2018-03-04T05:29:27.189Z,96255.02
2018-03-04T05:31:04.128Z,96261.09
2018-03-04T05:32:42.435Z,96262.39
2018-03-04T05:34:19.284Z,96279.16
2018-03-04T05:35:56.204Z,96318.91
2018-03-04T05:37:33.006Z,96294.27
2018-03-04T05:39:10.290Z,96318.48
2018-03-04T05:40:47.450Z,96310.30
2018-03-04T05:42:24.521Z,96303.80
2018-03-04T05:44:02.582Z,96308.52
2018-03-04T05:45:41.046Z,96332.28
2018-03-04T05:47:18.363Z,96308.98
2018-03-04T05:48:55.952Z,96314.58
2018-03-04T05:50:33.126Z,96300.33
2018-03-04T05:52:10.650Z,96294.34
2018-03-04T05:53:47.204Z,96319.40
2018-03-04T05:55:23.864Z,96337.95
2018-03-04T05:57:00.781Z,96344.02
2018-03-04T05:58:38.428Z,96336.67
2018-03-04T06:00:16.875Z,96303.91
2018-03-04T06:01:54.029Z,96294.80
2018-03-04T06:03:31.269Z,96307.77
2018-03-04T06:05:09.314Z,96287.88
2018-03-04T06:06:46.292Z,96292.70
2018-03-04T06:08:24.061Z,96295.25
2018-03-04T06:10:01.113Z,96308.20
2018-03-04T06:11:39.072Z,96324.64
2018-03-04T06:13:17.063Z,96323.69
2018-03-04T06:14:54.347Z,96323.77
2018-03-04T06:16:32.504Z,96327.23
2018-03-04T06:18:11.091Z,96347.06
2018-03-04T06:19:48.478Z,96318.55
2018-03-04T06:21:26.157Z,96325.50
2018-03-04T06:23:04.908Z,96339.30
2018-03-04T06:24:43.242Z,96334.64
2018-03-04T06:26:22.225Z,96320.25
2018-03-04T06:28:00.100Z,96312.95
2018-03-04T06:29:37.644Z,96322.95
2018-03-04T06:31:18.164Z,96340.21
2018-03-04T06:32:56.574Z,96321.63
2018-03-04T06:34:34.319Z,96328.13
2018-03-04T06:36:12.353Z,96336.24
2018-03-04T06:37:50.844Z,96327.63
2018-03-04T06:39:28.928Z,96330.70
2018-03-04T06:41:06.528Z,96316.06
2018-03-04T06:42:44.396Z,96313.44
2018-03-04T06:44:22.581Z,96331.95
2018-03-04T06:46:01.116Z,96355.78
2018-03-04T06:47:40.523Z,96346.17
2018-03-04T06:49:18.286Z,96351.95
2018-03-04T06:50:57.357Z,96347.55
2018-03-04T06:52:35.216Z,96344.50
2018-03-04T06:54:12.981Z,96361.81
2018-03-04T06:55:50.508Z,96394.23
2018-03-04T06:57:28.819Z,96386.85
2018-03-04T06:59:06.438Z,96392.81
2018-03-04T07:00:44.428Z,96372.98
2018-03-04T07:02:22.986Z,96363.94
2018-03-04T07:04:00.790Z,96400.66
2018-03-04T07:05:38.543Z,96406.69
2018-03-04T07:07:16.160Z,96417.05
2018-03-04T07:08:54.053Z,96424.42
2018-03-04T07:10:32.529Z,96379.19
2018-03-04T07:12:10.219Z,96367.42
2018-03-04T07:13:47.710Z,96416.69
2018-03-04T07:15:27.306Z,96453.80
2018-03-04T07:17:06.191Z,96464.13
2018-03-04T07:18:43.930Z,96436.00
2018-03-04T07:20:21.491Z,96473.22
2018-03-04T07:21:59.687Z,96497.30
2018-03-04T07:23:37.532Z,96508.58
2018-03-04T07:25:15.196Z,96505.53
2018-03-04T07:26:52.678Z,96506.45
2018-03-04T07:28:30.267Z,96464.59
2018-03-04T07:30:08.857Z,96474.98
2018-03-04T07:31:46.488Z,96462.82
2018-03-04T07:33:23.804Z,96515.04
2018-03-04T07:35:01.525Z,96569.51
2018-03-04T07:36:39.191Z,96597.57
2018-03-04T07:38:16.458Z,96604.45
2018-03-04T07:39:53.879Z,96649.08
2018-03-04T07:41:30.928Z,96717.74
2018-03-04T07:43:08.736Z,96769.13
2018-03-04T07:44:46.819Z,96800.34
2018-03-04T07:46:24.767Z,96867.89
2018-03-04T07:48:02.636Z,96846.72
2018-03-04T07:49:39.884Z,96874.86
2018-03-04T07:51:19.133Z,96870.95
2018-03-04T07:52:56.719Z,96895.58
2018-03-04T07:54:34.034Z,96894.72
2018-03-04T07:56:11.585Z,96943.23
2018-03-04T07:57:48.919Z,96916.78
2018-03-04T07:59:26.644Z,96934.55
2018-03-04T08:01:04.674Z,96929.78
2018-03-04T08:02:42.047Z,96903.41
2018-03-04T08:04:20.084Z,96792.62
2018-03-04T08:05:57.575Z,96802.24
2018-03-04T08:07:35.788Z,96803.03
2018-03-04T08:09:13.760Z,96822.92
2018-03-04T08:10:51.658Z,96871.01
2018-03-04T08:12:33.076Z,96891.33
2018-03-04T08:14:12.011Z,96926.36
2018-03-04T08:15:50.972Z,96884.88
2018-03-04T08:17:28.144Z,96894.36
2018-03-04T08:19:05.518Z,96956.78
2018-03-04T08:22:15.241Z,96961.55
2018-03-04T08:24:04.612Z,96970.62
2018-03-04T08:25:42.085Z,97042.09
2018-03-04T08:28:35.687Z,97054.17
2018-03-04T08:30:12.783Z,97033.84
2018-03-04T08:31:52.634Z,97059.87
2018-03-04T08:33:30.385Z,97062.44
2018-03-04T08:35:07.589Z,97040.32
2018-03-04T08:36:44.728Z,97089.79
2018-03-04T08:38:22.413Z,97168.63
2018-03-04T08:40:00.139Z,97243.72
2018-03-04T08:41:38.320Z,97231.52
2018-03-04T08:43:16.671Z,97196.00
2018-03-04T08:44:53.879Z,97134.02
2018-03-04T08:46:32.657Z,97175.19
2018-03-04T08:48:10.245Z,97224.66
2018-03-04T08:49:47.500Z,97199.52
2018-03-04T08:51:24.919Z,97193.38
2018-03-04T08:53:02.702Z,97186.94
2018-03-04T08:54:42.180Z,97151.34
2018-03-04T08:56:52.764Z,97161.34
2018-03-04T08:58:30.452Z,97134.02
2018-03-04T09:00:08.985Z,97128.41
2018-03-04T09:01:46.298Z,97075.59
2018-03-04T09:03:23.437Z,97093.73
2018-03-04T09:05:01.117Z,97094.17
2018-03-04T09:06:38.388Z,97167.87
2018-03-04T09:08:15.728Z,97232.91
2018-03-04T09:09:52.952Z,97296.30
2018-03-04T09:11:31.481Z,97319.69
2018-03-04T09:13:08.702Z,97334.55
2018-03-04T09:14:46.525Z,97226.02
2018-03-04T09:16:24.850Z,97224.33
2018-03-04T09:18:02.715Z,97284.55
2018-03-04T09:19:41.415Z,97349.69
2018-03-04T09:21:18.889Z,97360.53
2018-03-04T09:22:56.171Z,97374.02
2018-03-04T09:24:33.863Z,97357.16
2018-03-04T09:26:11.917Z,97381.47
2018-03-04T09:27:49.666Z,97305.89
2018-03-04T09:29:27.041Z,97275.10
2018-03-04T09:31:05.515Z,97247.72
2018-03-04T09:32:43.245Z,97263.38
2018-03-04T09:34:21.273Z,97303.75
2018-03-04T09:35:58.752Z,97357.16
2018-03-04T09:37:36.376Z,97397.13
2018-03-04T09:39:13.323Z,97420.06
2018-03-04T09:40:50.409Z,97514.25
2018-03-04T09:42:27.643Z,97477.41
2018-03-04T09:44:06.213Z,97346.73
2018-03-04T09:45:43.571Z,97322.87
2018-03-04T09:47:22.094Z,97352.84
2018-03-04T09:48:59.156Z,97344.99
2018-03-04T09:50:36.808Z,97324.16
2018-03-04T09:52:13.884Z,97308.09
2018-03-04T09:53:51.826Z,97282.03
2018-03-04T09:55:29.094Z,97300.71
2018-03-04T09:57:07.126Z,97342.45
2018-03-04T09:58:44.383Z,97332.83
2018-03-04T10:00:21.886Z,97346.77
2018-03-04T10:01:59.144Z,97390.59
2018-03-04T10:03:36.446Z,97427.48
2018-03-04T10:05:14.393Z,97453.52
2018-03-04T10:06:51.477Z,97496.62
2018-03-04T10:08:29.574Z,97411.94
2018-03-04T10:10:07.357Z,97441.86
2018-03-04T10:11:44.498Z,97503.59
2018-03-04T10:13:22.427Z,97513.13
2018-03-04T10:14:59.389Z,97541.80
2018-03-04T10:16:36.612Z,97600.49
2018-03-04T10:18:13.596Z,97704.00
2018-03-04T10:19:51.433Z,97845.08
2018-03-04T10:21:29.285Z,97914.32
2018-03-04T10:23:07.119Z,98034.11
2018-03-04T10:24:44.305Z,98084.28
2018-03-04T10:26:22.119Z,98009.36
2018-03-04T10:27:59.169Z,97845.97
2018-03-04T10:29:37.561Z,97800.23
2018-03-04T10:31:15.112Z,97829.44
2018-03-04T10:32:52.253Z,97822.31
2018-03-04T10:34:31.047Z,97872.94
2018-03-04T10:36:09.672Z,97982.38
2018-03-04T10:37:47.796Z,98043.34
2018-03-04T10:39:26.704Z,98108.32
2018-03-04T10:41:04.475Z,98163.74
2018-03-04T10:42:41.857Z,98140.23
2018-03-04T10:44:18.807Z,98122.33
2018-03-04T10:45:56.306Z,98053.34
2018-03-04T10:47:33.807Z,98050.78
2018-03-04T10:49:12.306Z,98093.94
2018-03-04T10:50:50.011Z,98107.97
2018-03-04T10:52:27.469Z,98077.86
2018-03-04T10:54:04.634Z,98074.38
2018-03-04T10:55:42.245Z,98076.53
2018-03-04T10:57:19.309Z,98088.78
2018-03-04T10:58:57.107Z,98159.50
2018-03-04T11:00:38.324Z,98230.11
2018-03-04T11:02:18.503Z,98289.52
2018-03-04T11:03:55.629Z,98379.52
2018-03-04T11:05:34.144Z,98539.02
2018-03-04T11:07:11.960Z,98697.81
2018-03-04T11:08:49.501Z,98771.83
2018-03-04T11:10:27.842Z,98790.19
2018-03-04T11:12:04.857Z,98638.75
2018-03-04T11:13:42.588Z,98501.43
2018-03-04T11:15:25.131Z,98291.73
2018-03-04T11:17:04.290Z,98247.23
2018-03-04T11:18:41.803Z,98244.66
2018-03-04T11:20:19.352Z,98218.42
2018-03-04T11:21:56.556Z,98237.22
2018-03-04T11:23:33.832Z,98198.82
2018-03-04T11:25:11.190Z,98223.66
2018-03-04T11:26:48.611Z,98210.17
2018-03-04T11:28:25.766Z,98211.48
2018-03-04T11:30:02.886Z,98268.66
2018-03-04T11:31:40.040Z,98335.89
2018-03-04T11:33:17.616Z,98378.23
2018-03-04T11:34:56.481Z,98312.37
2018-03-04T11:36:38.230Z,98327.63
2018-03-04T11:38:16.257Z,98381.31
2018-03-04T11:39:53.916Z,98399.27
2018-03-04T11:41:31.424Z,98415.42
2018-03-04T11:43:09.358Z,98436.39
2018-03-04T11:44:47.059Z,98498.87
2018-03-04T11:46:26.772Z,98558.36
2018-03-04T11:48:06.046Z,98679.10
2018-03-04T11:49:44.709Z,98707.52
2018-03-04T11:51:22.414Z,98716.34
2018-03-04T11:52:59.570Z,98688.30
2018-03-04T11:54:36.669Z,98646.29
2018-03-04T11:56:14.684Z,98655.08
2018-03-04T11:57:51.940Z,98645.02
2018-03-04T11:59:31.301Z,98690.06
2018-03-04T12:01:09.459Z,98758.86
2018-03-04T12:02:47.786Z,98740.86
2018-03-04T12:04:24.883Z,98724.69
2018-03-04T12:06:03.544Z,98826.31
2018-03-04T12:07:40.764Z,98935.39
2018-03-04T12:09:18.257Z,98884.58
2018-03-04T12:10:55.306Z,98841.64
2018-03-04T12:12:33.202Z,98860.51
2018-03-04T12:14:10.957Z,98916.16
2018-03-04T12:15:49.183Z,98921.00
2018-03-04T12:17:26.237Z,98825.92
2018-03-04T12:19:03.721Z,98771.14
2018-03-04T12:20:41.051Z,98787.39
2018-03-04T12:22:18.602Z,98878.09
2018-03-04T12:23:55.783Z,98923.24
2018-03-04T12:25:33.595Z,98935.04
2018-03-04T12:27:10.757Z,98924.98
2018-03-04T12:28:48.727Z,98964.87
2018-03-04T12:30:29.287Z,99003.05
2018-03-04T12:32:08.255Z,98947.78
2018-03-04T12:33:46.974Z,98935.93
2018-03-04T12:35:27.649Z,98972.78
2018-03-04T12:37:05.235Z,98975.84
2018-03-04T12:38:43.582Z,98997.77
2018-03-04T12:40:22.417Z,99048.65
2018-03-04T12:42:00.172Z,99089.87
2018-03-04T12:43:38.063Z,99139.04
2018-03-04T12:45:17.975Z,99142.11
2018-03-04T12:46:58.741Z,99145.14
2018-03-04T12:48:36.637Z,99167.59
2018-03-04T12:50:16.657Z,99229.00
2018-03-04T12:51:54.348Z,99232.53
2018-03-04T12:53:31.813Z,99276.03
2018-03-04T12:55:09.402Z,99358.15
2018-03-04T12:56:46.840Z,99389.40
2018-03-04T12:58:25.186Z,99352.48
2018-03-04T13:00:04.031Z,99355.56
2018-03-04T13:01:45.676Z,99377.13
2018-03-04T13:03:24.213Z,99389.84
2018-03-04T13:05:02.826Z,99345.45
2018-03-04T13:06:40.168Z,99341.96
2018-03-04T13:08:17.512Z,99323.97
2018-03-04T13:09:56.353Z,99319.18
2018-03-04T13:11:36.203Z,99301.12
2018-03-04T13:13:13.542Z,99325.27
2018-03-04T13:14:50.932Z,99352.95
2018-03-04T13:16:29.089Z,99377.59
2018-03-04T13:18:07.238Z,99402.20
2018-03-04T13:19:44.977Z,99407.05
2018-03-04T13:21:22.574Z,99386.81
2018-03-04T13:23:01.069Z,99380.64
2018-03-04T13:24:39.036Z,99410.11
2018-03-04T13:26:16.363Z,99444.84
2018-03-04T13:27:53.564Z,99428.13
2018-03-04T13:29:32.549Z,99441.75
2018-03-04T13:31:10.708Z,99470.33
2018-03-04T13:32:48.146Z,99450.58
2018-03-04T13:34:25.829Z,99422.89
2018-03-04T13:36:04.121Z,99426.84
2018-03-04T13:37:42.510Z,99466.45
2018-03-04T13:39:20.346Z,99502.93
2018-03-04T13:40:58.215Z,99536.33
2018-03-04T13:42:35.964Z,99512.59
2018-03-04T13:44:13.957Z,99467.26
2018-03-04T13:45:55.985Z,99445.30
2018-03-04T13:47:33.758Z,99433.45
2018-03-04T13:49:16.785Z,99450.58
2018-03-04T13:50:55.351Z,99473.02
2018-03-04T13:52:33.021Z,99520.09
2018-03-04T13:54:10.712Z,99572.45
2018-03-04T13:55:49.141Z,99552.63
2018-03-04T13:57:27.765Z,99564.94
2018-03-04T13:59:05.120Z,99576.41
2018-03-04T14:00:42.451Z,99606.31
2018-03-04T14:02:20.063Z,99632.72
2018-03-04T14:03:57.171Z,99670.61
2018-03-04T14:05:34.419Z,99672.36
2018-03-04T14:07:13.912Z,99635.33
2018-03-04T14:08:52.926Z,99641.98
2018-03-04T14:10:30.665Z,99652.52
2018-03-04T14:12:07.840Z,99675.85
2018-03-04T14:13:45.903Z,99730.93
2018-03-04T14:15:26.131Z,99723.84
2018-03-04T14:17:03.352Z,99697.48
2018-03-04T14:18:40.574Z,99764.43
2018-03-04T14:20:20.294Z,99737.97
2018-03-04T14:21:58.623Z,99749.47
2018-03-04T14:23:36.047Z,99738.88
2018-03-04T14:25:14.214Z,99739.73
2018-03-04T14:26:51.853Z,99801.43
2018-03-04T14:28:29.969Z,99836.26
2018-03-04T14:30:07.215Z,99863.59
2018-03-04T14:31:46.015Z,99844.63
2018-03-04T14:33:23.192Z,99786.89
2018-03-04T14:35:02.922Z,99751.17
2018-03-04T14:36:42.201Z,99751.63
2018-03-04T14:38:19.588Z,99783.35
2018-03-04T14:39:57.007Z,99835.80
2018-03-04T14:41:34.909Z,99893.59
2018-03-04T14:43:12.453Z,99848.58
2018-03-04T14:44:49.698Z,99909.45
2018-03-04T14:46:27.738Z,99999.39
2018-03-04T14:48:05.574Z,100047.05
2018-03-04T14:49:47.168Z,99984.42
2018-03-04T14:51:25.089Z,99958.39
2018-03-04T14:53:02.884Z,99924.92
2018-03-04T14:54:41.606Z,99848.56
2018-03-04T14:56:18.911Z,99828.76
2018-03-04T14:57:56.093Z,99790.86
2018-03-04T14:59:33.314Z,99775.41
2018-03-04T15:01:12.635Z,99754.34
2018-03-04T15:02:51.725Z,99710.70
2018-03-04T15:04:29.493Z,99671.05
2018-03-04T15:06:09.163Z,99645.98
2018-03-04T15:07:48.015Z,99652.58
2018-03-04T15:09:26.353Z,99691.77
2018-03-04T15:11:04.913Z,99714.66
2018-03-04T15:12:42.345Z,99693.93
2018-03-04T15:14:20.035Z,99650.37
2018-03-04T15:15:58.051Z,99643.33
2018-03-04T15:17:37.326Z,99647.34
2018-03-04T15:19:16.055Z,99629.71
2018-03-04T15:20:54.667Z,99602.39
2018-03-04T15:22:33.160Z,99605.92
2018-03-04T15:24:11.129Z,99582.61
2018-03-04T15:25:51.727Z,99565.87
2018-03-04T15:27:32.369Z,99557.08
2018-03-04T15:29:13.063Z,99543.00
2018-03-04T15:30:53.157Z,99553.59
2018-03-04T15:32:32.594Z,99537.73
2018-03-04T15:34:12.366Z,99507.35
2018-03-04T15:35:52.559Z,99530.23
2018-03-04T15:37:31.695Z,99518.36
2018-03-04T15:39:12.167Z,99510.47
2018-03-04T15:40:53.134Z,99513.93
2018-03-04T15:42:33.335Z,99555.77
2018-03-04T15:44:12.784Z,99587.88
2018-03-04T15:45:52.637Z,99615.13
2018-03-04T15:47:32.422Z,99560.66
2018-03-04T15:49:11.800Z,99538.19
2018-03-04T15:50:50.313Z,99522.74
2018-03-04T15:52:29.859Z,99561.94
2018-03-04T15:54:08.465Z,99551.36
2018-03-04T15:55:45.958Z,99525.34
2018-03-04T15:57:23.859Z,99548.27
2018-03-04T16:02:49.410Z,99523.67
2018-03-04T16:04:27.852Z,99498.58
2018-03-04T16:06:08.124Z,99485.38
2018-03-04T16:07:45.814Z,99473.02
2018-03-04T16:09:25.432Z,99486.68
2018-03-04T16:11:04.931Z,99473.54
2018-03-04T16:12:45.660Z,99451.93
2018-03-04T16:14:26.995Z,99464.29
2018-03-04T16:16:06.718Z,99451.95
2018-03-04T16:17:49.685Z,99445.81
2018-03-04T16:19:31.080Z,99433.88
2018-03-04T16:21:12.587Z,99386.89
2018-03-04T16:22:52.000Z,99367.06
2018-03-04T16:24:33.107Z,99359.61
2018-03-04T16:26:13.300Z,99358.72
2018-03-04T16:27:54.351Z,99365.76
2018-03-04T16:29:33.938Z,99354.79
2018-03-04T16:31:14.218Z,99324.08
2018-03-04T16:32:55.523Z,99289.31
2018-03-04T16:34:36.847Z,99297.27
2018-03-04T16:37:43.742Z,99254.19
2018-03-04T16:39:24.639Z,99232.19
2018-03-04T16:41:05.029Z,99232.65
2018-03-04T16:42:45.590Z,99232.65
2018-03-04T16:44:26.014Z,99226.52
2018-03-04T16:46:11.649Z,99204.52
2018-03-04T16:47:51.873Z,99192.69
2018-03-04T16:49:31.698Z,99194.88
2018-03-04T16:51:12.846Z,99183.02
2018-03-04T16:52:53.825Z,99147.05
2018-03-04T16:54:36.581Z,99144.84
2018-03-04T16:56:17.147Z,99145.28
2018-03-04T16:57:56.861Z,99133.89
2018-03-04T16:59:35.663Z,99119.84
2018-03-04T17:01:14.882Z,99128.20
2018-03-04T17:02:54.476Z,99140.43
2018-03-04T17:04:34.781Z,99151.03
2018-03-04T17:06:16.841Z,99137.44
2018-03-04T17:07:58.628Z,99127.29
2018-03-04T17:09:39.916Z,99114.98
2018-03-04T17:11:17.792Z,99130.84
2018-03-04T17:12:58.080Z,99150.57
2018-03-04T17:14:37.489Z,99183.45
2018-03-04T17:16:20.007Z,99202.83
2018-03-04T17:18:02.298Z,99155.82
2018-03-04T17:19:41.911Z,99131.70
2018-03-04T17:21:22.355Z,99120.26
2018-03-04T17:23:06.066Z,99193.58
2018-03-04T17:24:50.146Z,99263.85
2018-03-04T17:26:32.426Z,99463.36
2018-03-04T17:28:13.302Z,99641.55
2018-03-04T17:29:54.927Z,99661.32
2018-03-04T17:31:34.335Z,99718.53
2018-03-04T17:33:13.618Z,99632.23
2018-03-04T17:34:55.074Z,99608.52
2018-03-04T17:36:35.328Z,99682.05
2018-03-04T17:38:14.860Z,99499.41
2018-03-04T17:39:54.944Z,99238.31
2018-03-04T17:41:35.726Z,99045.64
2018-03-04T17:43:19.520Z,98966.75
2018-03-04T17:45:03.472Z,98930.38
2018-03-04T17:46:43.454Z,98925.50
2018-03-04T17:48:21.913Z,98966.75
2018-03-04T17:50:03.056Z,98990.88
2018-03-04T17:51:43.894Z,99007.07
2018-03-04T17:53:27.310Z,99006.64
2018-03-04T17:55:07.425Z,98966.31
2018-03-04T17:56:46.270Z,98984.27
2018-03-04T17:58:25.203Z,98950.52
2018-03-04T18:00:08.613Z,98925.96
2018-03-04T18:01:48.094Z,98898.75
2018-03-04T18:03:28.108Z,98890.94
2018-03-04T18:05:08.105Z,98861.94
2018-03-04T18:06:48.007Z,98861.94
2018-03-04T18:08:29.158Z,98876.88
2018-03-04T18:10:06.893Z,98837.83
2018-03-04T18:11:47.061Z,98836.52
2018-03-04T18:13:28.116Z,98892.27
2018-03-04T18:15:09.006Z,98904.13
2018-03-04T18:16:57.762Z,98897.50
2018-03-04T18:18:39.059Z,98874.66
2018-03-04T18:20:18.435Z,98875.55
2018-03-04T18:21:57.438Z,98887.39
2018-03-04T18:23:35.285Z,98883.88
2018-03-04T18:25:16.186Z,98895.74
2018-03-04T18:26:58.008Z,98845.66
2018-03-04T18:28:42.895Z,98828.26
2018-03-04T18:30:23.066Z,98921.17
2018-03-04T18:32:03.215Z,99107.01
2018-03-04T18:33:42.926Z,99298.05
2018-03-04T18:35:22.551Z,99269.02
2018-03-04T18:37:02.065Z,99135.58
2018-03-04T18:38:44.044Z,99124.66
2018-03-04T18:40:26.862Z,98969.80
2018-03-04T18:42:09.197Z,98850.61
2018-03-04T18:43:50.557Z,98765.58
2018-03-04T18:45:35.613Z,98705.55
2018-03-04T18:47:23.542Z,98665.34
2018-03-04T18:49:06.112Z,98632.11
2018-03-04T18:50:48.832Z,98613.71
2018-03-04T18:52:28.476Z,98605.38
2018-03-04T18:54:09.117Z,98604.51
2018-03-04T18:55:51.421Z,98578.29
2018-03-04T18:57:32.676Z,98543.75
2018-03-04T18:59:13.584Z,98558.63
2018-03-04T19:00:57.962Z,98536.72
2018-03-04T19:02:41.416Z,98540.69
2018-03-04T19:04:22.477Z,98545.09
2018-03-04T19:06:03.970Z,98551.11
2018-03-04T19:07:50.398Z,98535.85
2018-03-04T19:09:32.657Z,98535.42
2018-03-04T19:11:18.530Z,98485.53
2018-03-04T19:12:58.991Z,98449.30
2018-03-04T19:14:36.697Z,98437.97
2018-03-04T19:16:15.396Z,98432.70
2018-03-04T19:17:56.780Z,98426.62
2018-03-04T19:19:36.665Z,98436.23
2018-03-04T19:21:20.290Z,98413.48
2018-03-04T19:23:01.102Z,98399.53
2018-03-04T19:24:40.693Z,98339.17
2018-03-04T19:26:24.223Z,98331.78